カトマンズ の空港の天気 - METARとTAF

トリブバン国際空港 ( VNKT / KTM ) - ネパール カトマンズ
飛行場実況気象(Metar)
観測時間01/24 17:35 NPT (01/24 11:50 UTC)
風向・風速南西 4m/s
視程5000m
天気現象もや
少しの雲 雲底高度 460m
気温10℃
湿度76%
気圧1016hPa
METARVNKT 241150Z 22008KT 5000 BR FEW015 10/06 Q1016 NOSIG
過去の天気等 Google飛行場航空写真 Wunderground天気予報

過去48時間のMETAR

飛行場予報(TAF)
発表時間: 1/24 16:45 NPT (1/24 11:00 UTC)
予報対象時間: 24日17時 NPT ~ 25日17時 NPT
風向・風速南南西 5m/s
視程4000m
天気現象煙霧
少しの雲 雲底高度 460m
24日19時 NPT ~ 24日20時 NPT に徐々に
風向・風速南南東 2m/s
視程4000m
天気現象もや
少しの雲 雲底高度 460m
25日5時 NPT ~ 25日7時 NPT に徐々に
風向・風速不定 1m/s
視程3000m
天気現象もや
少しの雲 雲底高度 300m
25日6時 NPT から 確率 40% で
視程1500m
天気現象もや
25日9時 NPT ~ 25日10時 NPT に徐々に
風向・風速南東 2m/s
視程5000m
25日11時 NPT ~ 25日17時 NPT に徐々に
風向・風速西 5m/s
視程8000m
少しの雲 雲底高度 760m
TAF VNKT 241100Z 2412/2512 21009KT 4000 HZ FEW015
BECMG 2414/2415 15004KT 4000 BR FEW015
BECMG 2500/2502 VRB02KT 3000 BR FEW010
PROB40 2501/2503 1500 BR
BECMG 2504/2505 13003KT 5000 BR/HZ FEW015
BECMG 2506/2512 26010KT 8000 FEW025